createdAt,value
2023-08-12T00:03:12.869Z,9.15
2023-08-12T00:08:16.639Z,10.85
2023-08-12T00:13:21.895Z,10.55
2023-08-12T00:18:26.990Z,11.27
2023-08-12T00:23:31.063Z,11.70
2023-08-12T00:28:35.193Z,10.20
2023-08-12T00:33:40.262Z,11.15
2023-08-12T00:38:44.139Z,11.70
2023-08-12T00:43:47.893Z,11.23
2023-08-12T00:48:53.524Z,10.27
2023-08-12T00:54:00.376Z,11.15
2023-08-12T00:59:06.873Z,10.77
2023-08-12T01:04:12.368Z,9.65
2023-08-12T01:09:16.354Z,9.85
2023-08-12T01:14:27.335Z,8.88
2023-08-12T01:19:36.413Z,9.13
2023-08-12T01:24:42.814Z,8.95
2023-08-12T01:29:50.035Z,9.30
2023-08-12T01:35:03.079Z,8.40
2023-08-12T01:40:11.440Z,9.20
2023-08-12T01:45:15.233Z,8.30
2023-08-12T01:50:20.221Z,9.57
2023-08-12T01:55:25.365Z,8.52
2023-08-12T02:00:29.184Z,8.20
2023-08-12T02:05:32.955Z,8.52
2023-08-12T02:10:38.148Z,8.70
2023-08-12T02:15:41.894Z,8.68
2023-08-12T02:20:49.725Z,10.50
2023-08-12T02:25:55.828Z,9.35
2023-08-12T02:30:59.632Z,9.95
2023-08-12T02:36:03.393Z,9.65
2023-08-12T02:41:08.594Z,9.95
2023-08-12T02:46:12.504Z,8.77
2023-08-12T02:51:16.402Z,7.80
2023-08-12T02:56:21.558Z,7.97
2023-08-12T03:01:25.952Z,7.60
2023-08-12T03:06:29.808Z,6.72
2023-08-12T03:11:35.189Z,7.32
2023-08-12T03:16:39.720Z,7.28
2023-08-12T03:21:44.308Z,7.45
2023-08-12T03:26:50.277Z,6.47
2023-08-12T03:31:54.502Z,6.05
2023-08-12T03:36:59.503Z,6.75
2023-08-12T03:42:06.022Z,6.62
2023-08-12T03:47:10.075Z,6.65
2023-08-12T03:52:14.296Z,7.25
2023-08-12T03:57:19.517Z,7.05
2023-08-12T04:02:24.786Z,7.03
2023-08-12T04:07:28.745Z,7.15
2023-08-12T04:12:33.832Z,7.22
2023-08-12T04:17:37.677Z,7.72
2023-08-12T04:22:41.664Z,7.43
2023-08-12T04:27:48.347Z,8.60
2023-08-12T04:32:53.016Z,7.18
2023-08-12T04:37:59.015Z,7.28
2023-08-12T04:43:06.019Z,7.80
2023-08-12T04:48:11.889Z,8.20
2023-08-12T04:53:15.804Z,7.65
2023-08-12T04:58:21.009Z,8.65
2023-08-12T05:03:25.186Z,7.60
2023-08-12T05:08:29.565Z,7.10
2023-08-12T05:13:35.059Z,6.15
2023-08-12T05:18:39.412Z,5.22
2023-08-12T05:23:43.417Z,6.30
2023-08-12T05:28:48.537Z,6.07
2023-08-12T05:33:53.377Z,5.95
2023-08-12T05:38:57.256Z,5.10
2023-08-12T05:44:02.473Z,4.60
2023-08-12T05:49:06.325Z,5.15
2023-08-12T05:54:10.188Z,4.22
2023-08-12T05:59:15.273Z,4.97
2023-08-12T06:04:19.017Z,4.22
2023-08-12T06:09:23.408Z,4.35
2023-08-12T06:14:28.674Z,3.58
2023-08-12T06:19:32.450Z,3.25
2023-08-12T06:24:36.237Z,2.78
2023-08-12T06:29:41.362Z,3.80
2023-08-12T06:34:45.159Z,3.25
2023-08-12T06:39:48.916Z,3.10
2023-08-12T06:44:57.304Z,3.30
2023-08-12T06:50:01.196Z,3.35
2023-08-12T06:55:05.301Z,3.75
2023-08-12T07:00:11.679Z,3.58
2023-08-12T07:05:15.621Z,3.80
2023-08-12T07:10:21.570Z,2.90
2023-08-12T07:15:28.332Z,2.87
2023-08-12T07:20:32.144Z,2.80
2023-08-12T07:25:35.871Z,3.05
2023-08-12T07:30:40.943Z,2.72
2023-08-12T07:35:44.759Z,3.50
2023-08-12T07:40:48.616Z,3.40
2023-08-12T07:46:07.664Z,3.50
2023-08-12T07:51:12.989Z,3.17
2023-08-12T07:56:16.720Z,3.37
2023-08-12T08:01:21.811Z,4.00
2023-08-12T08:06:25.749Z,3.67
2023-08-12T08:11:29.463Z,4.10
2023-08-12T08:16:35.690Z,3.33
2023-08-12T08:21:39.647Z,3.75
2023-08-12T08:26:43.560Z,1.73
2023-08-12T08:31:48.718Z,1.05
2023-08-12T08:36:52.936Z,1.05
2023-08-12T08:41:57.029Z,0.80
2023-08-12T08:47:04.417Z,1.10
2023-08-12T08:52:08.230Z,0.70
2023-08-12T08:57:15.425Z,1.20
2023-08-12T09:02:23.311Z,1.23
2023-08-12T09:07:27.820Z,1.10
2023-08-12T09:12:33.512Z,1.45
2023-08-12T09:17:39.440Z,1.25
2023-08-12T09:22:43.885Z,1.10
2023-08-12T09:27:47.725Z,1.65
2023-08-12T09:33:03.954Z,1.52
2023-08-12T09:38:09.301Z,1.17
2023-08-12T09:43:13.759Z,1.70
2023-08-12T09:48:20.201Z,1.33
2023-08-12T09:53:24.519Z,1.85
2023-08-12T09:58:31.072Z,1.67
2023-08-12T10:03:36.967Z,1.70
2023-08-12T10:08:41.470Z,2.08
2023-08-12T10:13:45.477Z,1.60
2023-08-12T10:18:52.142Z,1.87
2023-08-12T10:23:56.268Z,1.17
2023-08-12T10:29:01.234Z,1.50
2023-08-12T10:34:06.666Z,1.98
2023-08-12T10:39:11.893Z,1.40
2023-08-12T10:44:15.845Z,1.98
2023-08-12T10:49:22.202Z,2.25
2023-08-12T10:54:30.340Z,1.98
2023-08-12T10:59:54.021Z,2.05
2023-08-12T11:05:03.192Z,1.83
2023-08-12T11:10:12.170Z,1.87
2023-08-12T11:15:16.076Z,2.28
2023-08-12T11:20:21.349Z,2.17
2023-08-12T11:25:25.107Z,1.92
2023-08-12T11:30:32.314Z,2.10
2023-08-12T11:35:39.499Z,2.35
2023-08-12T11:40:43.339Z,1.83
2023-08-12T11:45:47.086Z,2.05
2023-08-12T11:50:53.065Z,1.60
2023-08-12T11:55:56.972Z,2.00
2023-08-12T12:01:01.150Z,2.22
2023-08-12T12:06:06.378Z,2.45
2023-08-12T12:11:10.216Z,2.30
2023-08-12T12:16:13.965Z,1.83
2023-08-12T12:21:24.138Z,1.95
2023-08-12T12:26:28.095Z,1.87
2023-08-12T12:31:35.318Z,1.65
2023-08-12T12:36:40.464Z,1.67
2023-08-12T12:41:45.541Z,1.80
2023-08-12T12:46:50.531Z,1.90
2023-08-12T12:51:55.669Z,2.08
2023-08-12T12:56:59.409Z,2.08
2023-08-12T13:02:03.301Z,1.80
2023-08-12T13:07:08.502Z,2.00
2023-08-12T13:12:12.534Z,1.80
2023-08-12T13:17:16.459Z,1.90
2023-08-12T13:22:21.975Z,2.15
2023-08-12T13:27:25.740Z,2.03
2023-08-12T13:32:29.534Z,1.50
2023-08-12T13:37:35.009Z,2.20
2023-08-12T13:42:38.782Z,2.35
2023-08-12T13:47:42.643Z,1.90
2023-08-12T13:52:50.014Z,2.03
2023-08-12T13:57:54.456Z,2.15
2023-08-12T14:02:58.225Z,2.30
2023-08-12T14:08:03.641Z,2.58
2023-08-12T14:13:08.021Z,2.03
2023-08-12T14:18:12.068Z,2.60
2023-08-12T14:23:17.306Z,2.53
2023-08-12T14:28:21.163Z,4.18
2023-08-12T14:33:26.072Z,2.72
2023-08-12T14:38:32.530Z,2.53
2023-08-12T14:43:38.040Z,2.15
2023-08-12T14:48:42.030Z,2.28
2023-08-12T14:53:48.561Z,2.67
2023-08-12T14:58:52.386Z,2.80
2023-08-12T15:03:56.822Z,2.20
2023-08-12T15:09:02.116Z,2.42
2023-08-12T15:14:06.334Z,2.53
2023-08-12T15:19:10.156Z,1.90
2023-08-12T15:24:15.313Z,2.03
2023-08-12T15:29:19.168Z,2.08
2023-08-12T15:34:23.135Z,2.03
2023-08-12T15:39:28.338Z,2.92
2023-08-12T15:44:32.180Z,2.15
2023-08-12T15:49:36.003Z,2.00
2023-08-12T15:54:41.149Z,2.30
2023-08-12T15:59:47.487Z,2.83
2023-08-12T16:04:51.319Z,1.95
2023-08-12T16:09:56.438Z,2.45
2023-08-12T16:15:00.329Z,2.53
2023-08-12T16:20:04.797Z,2.67
2023-08-12T16:25:10.779Z,1.98
2023-08-12T16:30:32.870Z,2.37
2023-08-12T16:35:36.747Z,2.20
2023-08-12T16:40:41.908Z,2.25
2023-08-12T16:45:45.833Z,2.60
2023-08-12T16:50:49.724Z,2.30
2023-08-12T16:55:55.111Z,3.42
2023-08-12T17:00:59.535Z,3.58
2023-08-12T17:06:03.388Z,2.67
2023-08-12T17:11:09.189Z,3.40
2023-08-12T17:16:13.065Z,2.83
2023-08-12T17:21:17.105Z,2.80
2023-08-12T17:26:22.344Z,2.35
2023-08-12T17:31:26.162Z,2.92
2023-08-12T17:36:29.919Z,1.83
2023-08-12T17:41:35.068Z,2.37
2023-08-12T17:46:41.345Z,2.05
2023-08-12T17:51:45.160Z,2.22
2023-08-12T17:56:50.303Z,1.95
2023-08-12T18:01:54.134Z,1.85
2023-08-12T18:06:57.851Z,2.42
2023-08-12T18:12:03.027Z,2.15
2023-08-12T18:17:07.111Z,1.58
2023-08-12T18:22:11.253Z,1.90
2023-08-12T18:27:16.611Z,2.05
2023-08-12T18:32:20.523Z,1.73
2023-08-12T18:37:24.296Z,1.67
2023-08-12T18:42:29.416Z,1.98
2023-08-12T18:47:34.317Z,1.40
2023-08-12T18:52:39.606Z,1.85
2023-08-12T18:57:44.868Z,2.00
2023-08-12T19:02:48.796Z,2.28
2023-08-12T19:07:52.704Z,2.35
2023-08-12T19:12:57.827Z,2.45
2023-08-12T19:18:01.658Z,2.47
2023-08-12T19:23:05.958Z,1.80
2023-08-12T19:28:11.110Z,2.50
2023-08-12T19:33:14.886Z,1.90
2023-08-12T19:38:18.726Z,2.08
2023-08-12T19:43:23.888Z,1.83
2023-08-12T19:48:27.724Z,1.70
2023-08-12T19:53:31.468Z,1.40
2023-08-12T19:58:37.448Z,1.87
2023-08-12T20:03:41.219Z,1.85
2023-08-12T20:08:44.973Z,1.60
2023-08-12T20:13:50.127Z,2.25
2023-08-12T20:18:54.168Z,1.85
2023-08-12T20:23:58.012Z,2.03
2023-08-12T20:29:03.327Z,2.05
2023-08-12T20:34:07.366Z,2.50
2023-08-12T20:39:11.406Z,2.05
2023-08-12T20:44:16.660Z,2.45
2023-08-12T20:49:20.475Z,2.60
2023-08-12T20:54:26.527Z,2.75
2023-08-12T20:59:32.675Z,1.92
2023-08-12T21:04:36.594Z,2.37
2023-08-12T21:09:40.759Z,2.33
2023-08-12T21:14:45.921Z,3.15
2023-08-12T21:19:49.732Z,3.00
2023-08-12T21:24:53.645Z,2.45
2023-08-12T21:29:58.849Z,2.50
2023-08-12T21:35:02.826Z,2.40
2023-08-12T21:40:07.825Z,2.92
2023-08-12T21:45:14.127Z,2.50
2023-08-12T21:50:18.144Z,2.40
2023-08-12T21:55:22.034Z,2.65
2023-08-12T22:00:27.681Z,2.53
2023-08-12T22:05:31.864Z,2.60
2023-08-12T22:10:36.226Z,2.22
2023-08-12T22:15:43.824Z,2.10
2023-08-12T22:20:49.548Z,2.72
2023-08-12T22:25:53.450Z,3.10
2023-08-12T22:30:58.661Z,3.05
2023-08-12T22:36:02.477Z,2.35
2023-08-12T22:41:06.232Z,2.65
2023-08-12T22:46:11.428Z,1.92
2023-08-12T22:51:17.456Z,2.43
2023-08-12T22:56:21.388Z,2.65
2023-08-12T23:01:26.609Z,2.58
2023-08-12T23:06:30.407Z,3.12
2023-08-12T23:11:34.436Z,2.20
2023-08-12T23:16:39.707Z,3.28
2023-08-12T23:21:43.545Z,2.78
2023-08-12T23:26:47.284Z,3.08
2023-08-12T23:31:52.492Z,3.20
2023-08-12T23:36:56.293Z,3.22
2023-08-12T23:42:00.042Z,2.95
2023-08-12T23:47:05.363Z,3.03
2023-08-12T23:52:09.204Z,2.58
2023-08-12T23:57:15.262Z,2.53
